createdAt,value
2019-02-24T00:01:24.438Z,99.90
2019-02-24T00:03:54.773Z,99.90
2019-02-24T00:06:25.069Z,99.90
2019-02-24T00:08:55.075Z,99.90
2019-02-24T00:11:25.111Z,99.90
2019-02-24T00:13:55.265Z,99.90
2019-02-24T00:16:25.420Z,99.90
2019-02-24T00:18:55.548Z,99.90
2019-02-24T00:21:28.752Z,99.90
2019-02-24T00:23:58.819Z,99.90
2019-02-24T00:26:28.923Z,99.90
2019-02-24T00:28:59.257Z,99.90
2019-02-24T00:31:29.332Z,99.90
2019-02-24T00:33:59.660Z,99.90
2019-02-24T00:36:30.082Z,99.90
2019-02-24T00:39:00.089Z,99.90
2019-02-24T00:41:30.282Z,99.90
2019-02-24T00:44:00.421Z,99.90
2019-02-24T00:46:30.698Z,99.90
2019-02-24T00:49:00.869Z,99.90
2019-02-24T00:51:30.964Z,99.90
2019-02-24T00:54:00.973Z,99.90
2019-02-24T00:56:31.009Z,99.90
2019-02-24T00:59:01.081Z,99.90
2019-02-24T01:01:31.177Z,99.90
2019-02-24T01:04:01.269Z,99.90
2019-02-24T01:06:31.383Z,99.90
2019-02-24T01:09:01.488Z,99.90
2019-02-24T01:11:31.663Z,99.90
2019-02-24T01:14:01.869Z,99.90
2019-02-24T01:16:31.940Z,99.90
2019-02-24T01:19:01.976Z,99.90
2019-02-24T01:21:32.012Z,99.90
2019-02-24T01:24:02.027Z,99.90
2019-02-24T01:26:32.095Z,99.90
2019-02-24T01:29:02.098Z,99.90
2019-02-24T01:31:32.268Z,99.90
2019-02-24T01:34:02.262Z,99.90
2019-02-24T01:36:32.303Z,99.90
2019-02-24T01:39:02.524Z,99.90
2019-02-24T01:41:33.444Z,99.90
2019-02-24T01:44:03.462Z,99.90
2019-02-24T01:46:33.508Z,99.90
2019-02-24T01:49:03.540Z,99.90
2019-02-24T01:51:33.598Z,99.90
2019-02-24T01:54:03.615Z,99.90
2019-02-24T01:56:33.647Z,99.90
2019-02-24T01:59:03.665Z,99.90
2019-02-24T02:01:33.705Z,99.90
2019-02-24T02:04:03.760Z,99.90
2019-02-24T02:06:33.815Z,99.90
2019-02-24T02:09:04.913Z,99.90
2019-02-24T02:11:34.935Z,99.90
2019-02-24T02:14:04.997Z,99.90
2019-02-24T02:16:35.853Z,99.90
2019-02-24T02:19:06.250Z,99.90
2019-02-24T02:21:37.971Z,99.90
2019-02-24T02:24:09.629Z,99.90
2019-02-24T02:26:39.736Z,99.90
2019-02-24T02:29:09.769Z,99.90
2019-02-24T02:31:40.025Z,99.90
2019-02-24T02:34:10.245Z,99.90
2019-02-24T02:36:40.399Z,99.90
2019-02-24T02:39:10.584Z,99.90
2019-02-24T02:41:40.804Z,99.90
2019-02-24T02:44:11.055Z,99.90
2019-02-24T02:46:41.465Z,99.90
2019-02-24T02:49:11.484Z,99.90
2019-02-24T02:51:41.601Z,99.90
2019-02-24T02:54:11.730Z,99.90
2019-02-24T02:56:41.924Z,99.90
2019-02-24T02:59:11.938Z,99.90
2019-02-24T03:01:42.077Z,99.90
2019-02-24T03:04:12.269Z,99.90
2019-02-24T03:07:00.332Z,99.90
2019-02-24T03:09:30.540Z,99.90
2019-02-24T03:12:00.633Z,99.90
2019-02-24T03:14:30.850Z,99.90
2019-02-24T03:17:00.928Z,99.90
2019-02-24T03:19:30.936Z,99.90
2019-02-24T03:22:09.798Z,99.90
2019-02-24T03:24:39.796Z,99.90
2019-02-24T03:27:11.215Z,99.90
2019-02-24T03:29:41.219Z,99.90
2019-02-24T03:32:12.266Z,99.90
2019-02-24T03:34:42.320Z,99.90
2019-02-24T03:37:12.577Z,99.90
2019-02-24T03:39:42.705Z,99.90
2019-02-24T03:42:13.112Z,99.90
2019-02-24T03:44:43.177Z,99.90
2019-02-24T03:47:13.329Z,99.90
2019-02-24T03:49:43.510Z,99.90
2019-02-24T03:52:13.597Z,99.90
2019-02-24T03:54:43.902Z,99.90
2019-02-24T03:57:14.099Z,99.90
2019-02-24T03:59:44.338Z,99.90
2019-02-24T04:02:14.735Z,99.90
2019-02-24T04:04:46.560Z,99.90
2019-02-24T04:07:16.757Z,99.90
2019-02-24T04:09:46.935Z,99.90
2019-02-24T04:12:17.002Z,99.90
2019-02-24T04:14:47.084Z,99.90
2019-02-24T04:17:17.153Z,99.90
2019-02-24T04:19:47.238Z,99.90
2019-02-24T04:22:17.389Z,99.90
2019-02-24T04:24:47.420Z,99.90
2019-02-24T04:27:17.533Z,99.90
2019-02-24T04:29:48.026Z,99.90
2019-02-24T04:32:18.184Z,99.90
2019-02-24T04:34:48.338Z,99.90
2019-02-24T04:37:18.439Z,99.90
2019-02-24T04:39:48.462Z,99.90
2019-02-24T04:42:18.587Z,99.90
2019-02-24T04:44:48.593Z,99.90
2019-02-24T04:47:18.644Z,99.90
2019-02-24T04:49:48.636Z,99.90
2019-02-24T04:52:18.659Z,99.90
2019-02-24T04:54:48.676Z,99.90
2019-02-24T04:57:18.830Z,99.90
2019-02-24T04:59:49.079Z,99.90
2019-02-24T05:02:19.234Z,99.90
2019-02-24T05:04:49.387Z,99.90
2019-02-24T05:07:19.431Z,99.90
2019-02-24T05:09:49.433Z,99.90
2019-02-24T05:12:19.471Z,99.90
2019-02-24T05:14:49.478Z,99.90
2019-02-24T05:17:19.794Z,99.90
2019-02-24T05:19:49.948Z,99.90
2019-02-24T05:22:19.971Z,99.90
2019-02-24T05:24:50.030Z,99.90
2019-02-24T05:27:20.148Z,99.90
2019-02-24T05:29:50.556Z,99.90
2019-02-24T05:32:20.627Z,99.90
2019-02-24T05:34:50.815Z,99.90
2019-02-24T05:37:21.200Z,99.90
2019-02-24T05:39:51.293Z,99.90
2019-02-24T05:42:21.457Z,99.90
2019-02-24T05:44:54.321Z,99.90
2019-02-24T05:47:24.361Z,99.90
2019-02-24T05:49:54.359Z,99.90
2019-02-24T05:52:24.388Z,99.90
2019-02-24T05:54:54.402Z,99.90
2019-02-24T05:57:24.657Z,99.90
2019-02-24T05:59:55.576Z,99.90
2019-02-24T06:02:25.919Z,99.90
2019-02-24T06:04:57.084Z,99.90
2019-02-24T06:07:27.136Z,99.90
2019-02-24T06:09:57.162Z,99.90
2019-02-24T06:12:27.226Z,99.90
2019-02-24T06:14:57.303Z,99.90
2019-02-24T06:17:27.397Z,99.90
2019-02-24T06:19:57.481Z,99.90
2019-02-24T06:22:27.590Z,99.90
2019-02-24T06:24:57.712Z,99.90
2019-02-24T06:27:27.932Z,99.90
2019-02-24T06:30:04.522Z,99.90
2019-02-24T06:32:30.013Z,99.90
2019-02-24T06:35:00.113Z,99.90
2019-02-24T06:37:30.334Z,99.90
2019-02-24T06:40:00.354Z,99.90
2019-02-24T06:42:30.530Z,99.90
2019-02-24T06:45:00.654Z,99.90
2019-02-24T06:47:30.708Z,99.90
2019-02-24T06:50:00.777Z,99.90
2019-02-24T06:52:30.911Z,99.90
2019-02-24T06:55:01.036Z,99.90
2019-02-24T06:57:31.390Z,99.90
2019-02-24T07:00:01.459Z,99.90
2019-02-24T07:02:31.632Z,99.90
2019-02-24T07:05:01.684Z,99.90
2019-02-24T07:07:32.112Z,99.90
2019-02-24T07:10:02.253Z,99.90
2019-02-24T07:12:32.345Z,99.90
2019-02-24T07:15:02.380Z,99.90
2019-02-24T07:17:32.471Z,99.90
2019-02-24T07:20:02.555Z,99.90
2019-02-24T07:22:34.305Z,99.90
2019-02-24T07:25:04.757Z,99.90
2019-02-24T07:27:36.611Z,99.90
2019-02-24T07:30:07.556Z,99.90
2019-02-24T07:32:38.090Z,99.90
2019-02-24T07:35:08.177Z,99.90
2019-02-24T07:37:38.517Z,99.90
2019-02-24T07:40:08.544Z,99.90
2019-02-24T07:42:38.635Z,99.90
2019-02-24T07:45:08.753Z,99.90
2019-02-24T07:47:38.820Z,99.90
2019-02-24T07:50:08.899Z,99.90
2019-02-24T07:52:38.989Z,99.90
2019-02-24T07:55:09.059Z,99.90
2019-02-24T07:57:39.186Z,99.90
2019-02-24T08:00:09.264Z,99.90
2019-02-24T08:02:39.532Z,99.90
2019-02-24T08:05:09.567Z,99.90
2019-02-24T08:07:39.759Z,99.90
2019-02-24T08:10:10.198Z,99.90
2019-02-24T08:12:40.362Z,99.90
2019-02-24T08:15:11.073Z,99.90
2019-02-24T08:17:41.186Z,99.90
2019-02-24T08:20:11.215Z,99.90
2019-02-24T08:23:02.000Z,99.90
2019-02-24T08:25:32.101Z,99.90
2019-02-24T08:28:02.172Z,99.90
2019-02-24T08:30:40.954Z,99.90
2019-02-24T08:33:07.072Z,99.90
2019-02-24T08:35:37.195Z,99.90
2019-02-24T08:38:07.316Z,99.90
2019-02-24T08:40:37.509Z,99.90
2019-02-24T08:43:07.690Z,99.90
2019-02-24T08:45:37.769Z,99.90
2019-02-24T08:48:07.891Z,99.90
2019-02-24T08:50:39.014Z,99.90
2019-02-24T08:53:09.716Z,99.90
2019-02-24T08:55:39.995Z,99.90
2019-02-24T08:58:10.105Z,99.90
2019-02-24T09:00:40.304Z,99.90
2019-02-24T09:03:12.082Z,99.90
2019-02-24T09:05:42.107Z,99.90
2019-02-24T09:08:12.225Z,99.90
2019-02-24T09:10:42.324Z,99.90
2019-02-24T09:13:12.396Z,99.90
2019-02-24T09:15:42.560Z,99.90
2019-02-24T09:18:12.678Z,99.90
2019-02-24T09:20:42.922Z,99.90
2019-02-24T09:23:13.189Z,99.90
2019-02-24T09:25:43.261Z,99.90
2019-02-24T09:28:13.604Z,99.90
2019-02-24T09:30:43.645Z,99.90
2019-02-24T09:33:13.860Z,99.90
2019-02-24T09:35:44.048Z,99.90
2019-02-24T09:38:14.236Z,99.90
2019-02-24T09:40:44.250Z,99.90
2019-02-24T09:43:14.803Z,99.90
2019-02-24T09:45:44.864Z,99.90
2019-02-24T09:48:15.336Z,99.90
2019-02-24T09:50:45.374Z,99.90
2019-02-24T09:53:15.638Z,99.90
2019-02-24T09:55:45.861Z,99.90
2019-02-24T09:58:16.036Z,99.90
2019-02-24T10:00:46.174Z,99.90
2019-02-24T10:03:16.272Z,99.90
2019-02-24T10:05:46.495Z,99.90
2019-02-24T10:08:16.716Z,99.90
2019-02-24T10:10:46.846Z,99.90
2019-02-24T10:13:17.054Z,99.90
2019-02-24T10:15:47.180Z,99.90
2019-02-24T10:18:17.285Z,99.90
2019-02-24T10:20:47.393Z,99.90
2019-02-24T10:23:17.478Z,99.90
2019-02-24T10:25:50.629Z,99.90
2019-02-24T10:28:20.719Z,99.90
2019-02-24T10:30:50.834Z,99.90
2019-02-24T10:33:20.921Z,99.90
2019-02-24T10:35:51.022Z,99.90
2019-02-24T10:38:21.115Z,99.90
2019-02-24T10:40:51.278Z,99.90
2019-02-24T10:43:21.363Z,99.90
2019-02-24T10:45:51.856Z,99.90
2019-02-24T10:48:21.903Z,99.90
2019-02-24T10:50:51.990Z,99.90
2019-02-24T10:53:23.419Z,99.90
2019-02-24T10:55:53.459Z,99.90
2019-02-24T10:58:23.539Z,99.90
2019-02-24T11:00:53.722Z,99.90
2019-02-24T11:03:23.971Z,99.90
2019-02-24T11:05:54.161Z,99.90
2019-02-24T11:08:24.640Z,99.90
2019-02-24T11:10:54.710Z,99.90
2019-02-24T11:13:24.825Z,99.90
2019-02-24T11:15:55.905Z,99.90
2019-02-24T11:18:26.245Z,99.90
2019-02-24T11:20:56.302Z,99.90
2019-02-24T11:23:29.247Z,99.90
2019-02-24T11:25:59.360Z,99.90
2019-02-24T11:28:29.410Z,99.90
2019-02-24T11:30:59.405Z,99.90
2019-02-24T11:33:29.668Z,99.90
2019-02-24T11:35:59.704Z,99.90
2019-02-24T11:38:29.758Z,99.90
2019-02-24T11:40:59.810Z,99.90
2019-02-24T11:43:30.153Z,99.90
2019-02-24T11:46:00.242Z,98.90
2019-02-24T11:48:30.459Z,96.40
2019-02-24T11:51:00.743Z,93.40
2019-02-24T11:53:30.827Z,84.50
2019-02-24T11:56:00.827Z,82.60
2019-02-24T11:58:30.890Z,74.10
2019-02-24T12:01:00.979Z,68.90
2019-02-24T12:03:31.009Z,71.40
2019-02-24T12:06:01.010Z,69.10
2019-02-24T12:08:31.129Z,65.30
2019-02-24T12:11:01.830Z,66.80
2019-02-24T12:13:31.911Z,65.80
2019-02-24T12:16:01.989Z,65.00
2019-02-24T12:18:32.014Z,62.60
2019-02-24T12:21:02.147Z,64.10
2019-02-24T12:23:32.292Z,61.40
2019-02-24T12:26:02.414Z,59.30
2019-02-24T12:28:32.643Z,59.70
2019-02-24T12:31:03.067Z,59.90
2019-02-24T12:33:33.168Z,60.10
2019-02-24T12:36:03.265Z,62.90
2019-02-24T12:38:33.764Z,60.10
2019-02-24T12:41:03.813Z,61.90
2019-02-24T12:43:35.558Z,60.00
2019-02-24T12:46:05.580Z,59.00
2019-02-24T12:48:35.726Z,58.70
2019-02-24T12:51:05.894Z,59.90
2019-02-24T12:53:36.209Z,58.90
2019-02-24T12:56:06.727Z,57.80
2019-02-24T12:58:38.131Z,55.70
2019-02-24T13:01:08.222Z,55.30
2019-02-24T13:03:39.046Z,54.70
2019-02-24T13:06:09.153Z,56.60
2019-02-24T13:08:39.286Z,54.60
2019-02-24T13:11:09.430Z,54.80
2019-02-24T13:13:39.557Z,54.40
2019-02-24T13:16:09.654Z,54.10
2019-02-24T13:18:39.949Z,52.70
2019-02-24T13:21:10.135Z,53.00
2019-02-24T13:23:40.271Z,52.10
2019-02-24T13:26:10.303Z,51.30
2019-02-24T13:28:50.133Z,50.80
2019-02-24T13:31:12.151Z,52.00
2019-02-24T13:33:42.201Z,52.50
2019-02-24T13:36:12.219Z,52.30
2019-02-24T13:38:42.377Z,51.80
2019-02-24T13:41:12.384Z,51.30
2019-02-24T13:43:42.658Z,50.00
2019-02-24T13:46:12.849Z,50.70
2019-02-24T13:48:42.962Z,49.10
2019-02-24T13:51:13.125Z,49.00
2019-02-24T13:53:43.312Z,48.20
2019-02-24T13:56:13.361Z,51.30
2019-02-24T13:58:44.451Z,50.40
2019-02-24T14:01:14.468Z,50.60
2019-02-24T14:03:44.533Z,48.10
2019-02-24T14:06:14.550Z,47.50
2019-02-24T14:08:44.741Z,47.50
2019-02-24T14:11:14.772Z,48.10
2019-02-24T14:13:44.938Z,47.00
2019-02-24T14:16:15.076Z,47.00
2019-02-24T14:18:45.243Z,45.50
2019-02-24T14:21:15.567Z,46.60
2019-02-24T14:23:45.739Z,44.30
2019-02-24T14:26:19.802Z,42.90
2019-02-24T14:28:50.225Z,43.70
2019-02-24T14:31:20.244Z,43.50
2019-02-24T14:33:50.418Z,44.70
2019-02-24T14:36:20.617Z,44.40
2019-02-24T14:38:50.785Z,43.60
2019-02-24T14:41:20.801Z,44.80
2019-02-24T14:43:50.900Z,44.90
2019-02-24T14:46:20.930Z,44.90
2019-02-24T14:48:50.987Z,43.10
2019-02-24T14:51:21.023Z,42.80
2019-02-24T14:53:51.135Z,42.90
2019-02-24T14:56:21.263Z,43.30
2019-02-24T14:58:51.437Z,43.30
2019-02-24T15:01:21.569Z,45.30
2019-02-24T15:03:51.816Z,45.50
2019-02-24T15:06:21.957Z,46.60
2019-02-24T15:08:51.976Z,46.20
2019-02-24T15:11:21.989Z,46.20
2019-02-24T15:13:52.032Z,46.60
2019-02-24T15:16:22.036Z,46.00
2019-02-24T15:18:52.146Z,47.10
2019-02-24T15:21:22.297Z,45.40
2019-02-24T15:23:52.442Z,46.00
2019-02-24T15:26:22.606Z,45.90
2019-02-24T15:28:53.021Z,46.50
2019-02-24T15:31:23.026Z,46.40
2019-02-24T15:33:53.196Z,46.00
2019-02-24T15:36:23.368Z,46.00
2019-02-24T15:38:53.617Z,46.10
2019-02-24T15:41:29.676Z,45.10
2019-02-24T15:43:55.515Z,45.80
2019-02-24T15:46:26.865Z,45.80
2019-02-24T15:48:57.061Z,45.10
2019-02-24T15:51:27.132Z,45.90
2019-02-24T15:53:57.164Z,46.50
2019-02-24T15:56:27.236Z,46.30
2019-02-24T15:58:57.349Z,47.20
2019-02-24T16:01:27.382Z,48.40
2019-02-24T16:03:57.574Z,48.50
2019-02-24T16:06:27.805Z,48.50
2019-02-24T16:08:57.951Z,49.40
2019-02-24T16:11:28.193Z,48.30
2019-02-24T16:13:58.382Z,49.60
2019-02-24T16:16:28.875Z,50.40
2019-02-24T16:18:58.905Z,50.40
2019-02-24T16:21:29.013Z,51.30
2019-02-24T16:23:59.168Z,51.10
2019-02-24T16:26:29.313Z,51.60
2019-02-24T16:29:00.892Z,52.00
2019-02-24T16:31:30.905Z,51.70
2019-02-24T16:34:01.023Z,52.80
2019-02-24T16:36:31.074Z,53.80
2019-02-24T16:39:01.521Z,54.00
2019-02-24T16:41:31.551Z,53.10
2019-02-24T16:44:01.685Z,53.60
2019-02-24T16:46:31.769Z,54.10
2019-02-24T16:49:03.410Z,54.60
2019-02-24T16:51:33.698Z,53.90
2019-02-24T16:54:03.781Z,54.70
2019-02-24T16:56:33.806Z,54.80
2019-02-24T16:59:03.956Z,54.90
2019-02-24T17:01:34.012Z,54.70
2019-02-24T17:04:04.371Z,54.00
2019-02-24T17:06:34.484Z,54.70
2019-02-24T17:09:11.990Z,55.40
2019-02-24T17:11:42.551Z,56.50
2019-02-24T17:14:13.212Z,57.60
2019-02-24T17:16:43.433Z,59.00
2019-02-24T17:19:13.832Z,59.40
2019-02-24T17:21:44.196Z,60.80
2019-02-24T17:24:14.650Z,61.80
2019-02-24T17:26:44.901Z,63.30
2019-02-24T17:29:15.242Z,64.50
2019-02-24T17:31:45.555Z,61.80
2019-02-24T17:34:16.063Z,61.40
2019-02-24T17:36:46.336Z,61.80
2019-02-24T17:39:17.732Z,62.50
2019-02-24T17:41:48.317Z,63.30
2019-02-24T17:44:21.145Z,65.10
2019-02-24T17:46:51.469Z,66.00
2019-02-24T17:49:21.694Z,67.50
2019-02-24T17:51:51.780Z,68.20
2019-02-24T17:54:21.938Z,68.80
2019-02-24T17:56:52.104Z,68.10
2019-02-24T17:59:22.136Z,68.30
2019-02-24T18:01:52.208Z,67.40
2019-02-24T18:04:22.355Z,68.00
2019-02-24T18:06:54.864Z,67.80
2019-02-24T18:09:25.099Z,68.80
2019-02-24T18:11:55.276Z,71.70
2019-02-24T18:14:25.452Z,70.50
2019-02-24T18:16:55.644Z,68.40
2019-02-24T18:19:25.956Z,69.50
2019-02-24T18:21:55.994Z,69.70
2019-02-24T18:24:28.037Z,70.90
2019-02-24T18:26:57.869Z,72.00
2019-02-24T18:29:28.097Z,72.90
2019-02-24T18:31:58.303Z,75.30
2019-02-24T18:34:28.363Z,75.00
2019-02-24T18:36:58.533Z,75.40
2019-02-24T18:39:36.560Z,75.80
2019-02-24T18:42:06.846Z,75.80
2019-02-24T18:44:37.174Z,75.40
2019-02-24T18:47:07.211Z,75.40
2019-02-24T18:49:37.347Z,75.50
2019-02-24T18:52:07.550Z,75.70
2019-02-24T18:54:37.671Z,76.80
2019-02-24T18:57:07.916Z,77.00
2019-02-24T18:59:37.986Z,76.50
2019-02-24T19:02:07.983Z,76.90
2019-02-24T19:04:38.316Z,76.70
2019-02-24T19:07:28.466Z,76.90
2019-02-24T19:10:02.085Z,77.30
2019-02-24T19:12:32.178Z,78.60
2019-02-24T19:15:02.828Z,79.40
2019-02-24T19:17:33.015Z,79.60
2019-02-24T19:20:03.136Z,80.90
2019-02-24T19:22:33.213Z,80.70
2019-02-24T19:25:05.826Z,80.80
2019-02-24T19:27:38.367Z,81.00
2019-02-24T19:30:10.371Z,81.40
2019-02-24T19:32:40.409Z,82.00
2019-02-24T19:35:28.752Z,82.60
2019-02-24T19:37:58.836Z,83.80
2019-02-24T19:40:28.920Z,84.90
2019-02-24T19:42:58.988Z,85.80
2019-02-24T19:45:29.349Z,85.70
2019-02-24T19:48:02.071Z,86.80
2019-02-24T19:50:33.840Z,86.90
2019-02-24T19:53:04.022Z,87.60
2019-02-24T19:55:35.627Z,88.40
2019-02-24T19:58:05.796Z,88.50
2019-02-24T20:00:35.994Z,86.60
2019-02-24T20:03:06.188Z,87.50
2019-02-24T20:05:36.365Z,88.50
2019-02-24T20:08:06.655Z,88.30
2019-02-24T20:10:37.040Z,88.20
2019-02-24T20:13:07.202Z,88.30
2019-02-24T20:15:37.406Z,89.00
2019-02-24T20:18:07.594Z,89.90
2019-02-24T20:20:37.800Z,90.00
2019-02-24T20:23:08.157Z,90.30
2019-02-24T20:25:40.618Z,90.40
2019-02-24T20:28:10.711Z,90.70
2019-02-24T20:30:40.844Z,90.90
2019-02-24T20:33:10.998Z,91.00
2019-02-24T20:35:41.265Z,91.30
2019-02-24T20:38:11.402Z,91.50
2019-02-24T20:40:42.014Z,91.80
2019-02-24T20:43:12.199Z,92.10
2019-02-24T20:45:42.343Z,92.40
2019-02-24T20:48:12.635Z,92.20
2019-02-24T20:50:43.154Z,92.20
2019-02-24T20:53:13.438Z,93.10
2019-02-24T20:55:43.589Z,93.40
2019-02-24T20:58:16.738Z,93.90
2019-02-24T21:00:46.863Z,94.20
2019-02-24T21:03:17.044Z,93.90
2019-02-24T21:05:47.111Z,94.00
2019-02-24T21:08:17.153Z,94.60
2019-02-24T21:10:47.199Z,94.80
2019-02-24T21:13:17.234Z,95.30
2019-02-24T21:15:47.235Z,95.40
2019-02-24T21:18:18.475Z,96.50
2019-02-24T21:20:48.613Z,97.20
2019-02-24T21:23:18.716Z,98.00
2019-02-24T21:25:48.796Z,98.30
2019-02-24T21:28:18.905Z,98.60
2019-02-24T21:30:48.943Z,98.80
2019-02-24T21:33:19.108Z,99.20
2019-02-24T21:35:49.219Z,99.60
2019-02-24T21:38:19.333Z,99.90
2019-02-24T21:40:49.401Z,99.90
2019-02-24T21:43:19.469Z,99.90
2019-02-24T21:45:49.589Z,99.90
2019-02-24T21:48:21.415Z,99.90
2019-02-24T21:50:51.492Z,99.90
2019-02-24T21:53:21.710Z,99.90
2019-02-24T21:55:51.772Z,99.90
2019-02-24T21:58:21.893Z,99.90
2019-02-24T22:00:51.904Z,99.90
2019-02-24T22:03:21.955Z,99.90
2019-02-24T22:05:52.002Z,99.90
2019-02-24T22:08:22.179Z,99.90
2019-02-24T22:10:52.197Z,99.90
2019-02-24T22:13:22.329Z,99.90
2019-02-24T22:15:53.377Z,99.90
2019-02-24T22:18:24.075Z,99.90
2019-02-24T22:20:54.281Z,99.90
2019-02-24T22:23:24.475Z,99.90
2019-02-24T22:25:54.532Z,99.90
2019-02-24T22:28:24.590Z,99.90
2019-02-24T22:30:54.974Z,99.90
2019-02-24T22:33:25.179Z,99.90
2019-02-24T22:35:55.300Z,99.90
2019-02-24T22:38:25.453Z,99.90
2019-02-24T22:40:55.483Z,99.90
2019-02-24T22:43:25.515Z,99.90
2019-02-24T22:45:55.552Z,99.90
2019-02-24T22:48:25.750Z,99.90
2019-02-24T22:50:55.759Z,99.90
2019-02-24T22:53:25.847Z,99.90
2019-02-24T22:55:56.076Z,99.90
2019-02-24T22:58:26.251Z,99.90
2019-02-24T23:01:12.284Z,99.90
2019-02-24T23:03:44.653Z,99.90
2019-02-24T23:06:14.670Z,99.90
2019-02-24T23:08:44.891Z,99.90
2019-02-24T23:11:15.003Z,99.90
2019-02-24T23:13:45.107Z,99.90
2019-02-24T23:16:17.491Z,99.90
2019-02-24T23:18:47.653Z,99.90
2019-02-24T23:21:17.739Z,99.90
2019-02-24T23:23:47.843Z,99.90
2019-02-24T23:26:17.875Z,99.90
2019-02-24T23:28:48.208Z,99.90
2019-02-24T23:31:18.277Z,99.90
2019-02-24T23:33:48.379Z,99.90
2019-02-24T23:36:18.413Z,99.90
2019-02-24T23:38:48.474Z,99.90
2019-02-24T23:41:18.509Z,99.90
2019-02-24T23:43:48.719Z,99.90
2019-02-24T23:46:20.408Z,99.90
2019-02-24T23:48:50.430Z,99.90
2019-02-24T23:51:20.437Z,99.90
2019-02-24T23:53:50.460Z,99.90
2019-02-24T23:56:20.565Z,99.90
2019-02-24T23:58:52.329Z,99.90
